createdAt,value
2019-01-13T00:00:00.249Z,996.49
2019-01-13T00:01:00.225Z,996.48
2019-01-13T00:02:00.244Z,996.56
2019-01-13T00:03:00.202Z,996.58
2019-01-13T00:04:00.193Z,996.58
2019-01-13T00:05:00.184Z,996.55
2019-01-13T00:06:00.169Z,996.56
2019-01-13T00:07:00.160Z,996.56
2019-01-13T00:08:00.163Z,996.53
2019-01-13T00:09:00.151Z,996.52
2019-01-13T00:10:00.244Z,996.50
2019-01-13T00:11:00.118Z,996.54
2019-01-13T00:12:00.185Z,996.51
2019-01-13T00:13:00.096Z,996.51
2019-01-13T00:14:00.082Z,996.57
2019-01-13T00:15:00.093Z,996.56
2019-01-13T00:16:00.062Z,996.58
2019-01-13T00:17:00.053Z,996.60
2019-01-13T00:18:00.070Z,996.64
2019-01-13T00:19:00.032Z,996.62
2019-01-13T00:20:00.019Z,996.62
2019-01-13T00:21:00.008Z,996.69
2019-01-13T00:21:59.997Z,996.65
2019-01-13T00:22:59.988Z,996.72
2019-01-13T00:23:59.990Z,996.66
2019-01-13T00:25:00.009Z,996.72
2019-01-13T00:25:59.956Z,996.66
2019-01-13T00:26:59.945Z,996.67
2019-01-13T00:27:59.936Z,996.66
2019-01-13T00:28:59.922Z,996.72
2019-01-13T00:29:59.915Z,996.67
2019-01-13T00:30:59.926Z,996.69
2019-01-13T00:31:59.891Z,996.72
2019-01-13T00:32:59.880Z,996.78
2019-01-13T00:33:59.874Z,996.72
2019-01-13T00:34:59.860Z,996.73
2019-01-13T00:35:59.853Z,996.80
2019-01-13T00:36:59.853Z,996.75
2019-01-13T00:37:59.830Z,996.79
2019-01-13T00:38:59.824Z,996.80
2019-01-13T00:39:59.806Z,996.78
2019-01-13T00:40:59.808Z,996.82
2019-01-13T00:41:59.790Z,996.87
2019-01-13T00:42:59.786Z,996.85
2019-01-13T00:43:59.768Z,996.85
2019-01-13T00:44:59.753Z,996.83
2019-01-13T00:45:59.755Z,996.82
2019-01-13T00:46:59.732Z,996.79
2019-01-13T00:47:59.781Z,996.80
2019-01-13T00:48:59.710Z,996.78
2019-01-13T00:49:59.701Z,996.74
2019-01-13T00:50:59.690Z,996.77
2019-01-13T00:51:59.683Z,996.76
2019-01-13T00:52:59.666Z,996.75
2019-01-13T00:53:59.679Z,996.78
2019-01-13T00:54:59.644Z,996.74
2019-01-13T00:55:59.634Z,996.66
2019-01-13T00:56:59.629Z,996.64
2019-01-13T00:57:59.612Z,996.67
2019-01-13T00:58:59.615Z,996.62
2019-01-13T00:59:59.593Z,996.70
2019-01-13T01:00:59.583Z,996.63
2019-01-13T01:01:59.596Z,996.62
2019-01-13T01:02:59.561Z,996.62
2019-01-13T01:03:59.549Z,996.66
2019-01-13T01:04:59.536Z,996.61
2019-01-13T01:05:59.526Z,996.61
2019-01-13T01:06:59.523Z,996.65
2019-01-13T01:07:59.548Z,996.58
2019-01-13T01:08:59.500Z,996.58
2019-01-13T01:09:59.487Z,996.63
2019-01-13T01:10:59.472Z,996.60
2019-01-13T01:11:59.466Z,996.60
2019-01-13T01:12:59.453Z,996.62
2019-01-13T01:13:59.457Z,996.59
2019-01-13T01:14:59.428Z,996.57
2019-01-13T01:15:59.425Z,996.57
2019-01-13T01:16:59.411Z,996.49
2019-01-13T01:17:59.426Z,996.52
2019-01-13T01:18:59.388Z,996.49
2019-01-13T01:19:59.376Z,996.58
2019-01-13T01:20:59.368Z,996.53
2019-01-13T01:21:59.356Z,996.55
2019-01-13T01:22:59.344Z,996.50
2019-01-13T01:23:59.351Z,996.48
2019-01-13T01:24:59.325Z,996.47
2019-01-13T01:25:59.312Z,996.48
2019-01-13T01:26:59.302Z,996.48
2019-01-13T01:27:59.290Z,996.44
2019-01-13T01:28:59.300Z,996.40
2019-01-13T01:29:59.270Z,996.41
2019-01-13T01:30:59.261Z,996.44
2019-01-13T01:31:59.253Z,996.47
2019-01-13T01:32:59.237Z,996.47
2019-01-13T01:33:59.241Z,996.47
2019-01-13T01:34:59.219Z,996.48
2019-01-13T01:35:59.208Z,996.46
2019-01-13T01:36:59.195Z,996.45
2019-01-13T01:37:59.183Z,996.44
2019-01-13T01:38:59.186Z,996.41
2019-01-13T01:39:59.164Z,996.44
2019-01-13T01:40:59.164Z,996.40
2019-01-13T01:41:59.155Z,996.45
2019-01-13T01:42:59.133Z,996.46
2019-01-13T01:43:59.122Z,996.41
2019-01-13T01:44:59.118Z,996.43
2019-01-13T01:45:59.100Z,996.48
2019-01-13T01:46:59.105Z,996.46
2019-01-13T01:47:59.079Z,996.42
2019-01-13T01:48:59.084Z,996.48
2019-01-13T01:49:59.070Z,996.47
2019-01-13T01:50:59.046Z,996.44
2019-01-13T01:51:59.035Z,996.44
2019-01-13T01:52:59.036Z,996.42
2019-01-13T01:53:59.012Z,996.44
2019-01-13T01:54:59.003Z,996.47
2019-01-13T01:55:58.989Z,996.43
2019-01-13T01:56:58.978Z,996.44
2019-01-13T01:57:58.984Z,996.41
2019-01-13T01:58:58.964Z,996.42
2019-01-13T01:59:58.981Z,996.42
2019-01-13T02:00:58.935Z,996.37
2019-01-13T02:01:58.925Z,996.28
2019-01-13T02:02:58.943Z,996.28
2019-01-13T02:03:58.904Z,996.26
2019-01-13T02:04:58.891Z,996.24
2019-01-13T02:05:58.935Z,996.18
2019-01-13T02:06:58.873Z,996.18
2019-01-13T02:07:58.861Z,996.23
2019-01-13T02:08:58.877Z,996.09
2019-01-13T02:09:58.844Z,996.13
2019-01-13T02:10:58.829Z,996.16
2019-01-13T02:11:58.821Z,996.16
2019-01-13T02:12:58.809Z,996.17
2019-01-13T02:13:58.798Z,996.11
2019-01-13T02:14:58.798Z,996.15
2019-01-13T02:15:58.773Z,996.10
2019-01-13T02:16:58.770Z,996.18
2019-01-13T02:17:58.754Z,996.21
2019-01-13T02:18:58.741Z,996.23
2019-01-13T02:19:58.747Z,996.16
2019-01-13T02:20:58.719Z,996.20
2019-01-13T02:21:58.710Z,996.16
2019-01-13T02:22:58.698Z,996.13
2019-01-13T02:23:58.689Z,996.09
2019-01-13T02:24:58.692Z,996.05
2019-01-13T02:25:58.666Z,996.08
2019-01-13T02:26:58.665Z,996.04
2019-01-13T02:27:58.645Z,996.04
2019-01-13T02:28:58.634Z,996.00
2019-01-13T02:29:58.638Z,995.98
2019-01-13T02:30:58.613Z,996.00
2019-01-13T02:31:58.603Z,995.92
2019-01-13T02:32:58.590Z,995.91
2019-01-13T02:33:58.592Z,995.92
2019-01-13T02:34:58.569Z,995.84
2019-01-13T02:35:58.571Z,995.78
2019-01-13T02:36:58.563Z,995.78
2019-01-13T02:37:58.539Z,995.79
2019-01-13T02:38:58.536Z,995.79
2019-01-13T02:39:58.513Z,995.82
2019-01-13T02:40:58.501Z,995.81
2019-01-13T02:41:58.490Z,995.82
2019-01-13T02:42:58.514Z,995.88
2019-01-13T02:43:58.474Z,995.86
2019-01-13T02:44:58.458Z,995.86
2019-01-13T02:45:58.446Z,995.89
2019-01-13T02:46:58.435Z,995.90
2019-01-13T02:47:58.424Z,995.90
2019-01-13T02:48:58.434Z,995.91
2019-01-13T02:49:58.405Z,995.90
2019-01-13T02:50:58.395Z,995.92
2019-01-13T02:51:58.400Z,995.86
2019-01-13T02:52:58.373Z,995.88
2019-01-13T02:53:58.364Z,995.79
2019-01-13T02:54:58.366Z,995.87
2019-01-13T02:55:58.358Z,995.87
2019-01-13T02:56:58.329Z,995.86
2019-01-13T02:57:58.317Z,995.87
2019-01-13T02:58:58.305Z,995.85
2019-01-13T02:59:58.311Z,995.85
2019-01-13T03:00:58.286Z,995.77
2019-01-13T03:01:58.288Z,995.75
2019-01-13T03:02:58.262Z,995.78
2019-01-13T03:03:58.253Z,995.79
2019-01-13T03:04:58.243Z,995.81
2019-01-13T03:05:58.246Z,995.77
2019-01-13T03:06:58.219Z,995.85
2019-01-13T03:07:58.209Z,995.85
2019-01-13T03:08:58.213Z,995.85
2019-01-13T03:09:58.189Z,995.84
2019-01-13T03:10:58.176Z,995.84
2019-01-13T03:11:58.166Z,995.85
2019-01-13T03:12:58.156Z,995.82
2019-01-13T03:13:58.156Z,995.84
2019-01-13T03:14:58.130Z,995.85
2019-01-13T03:15:58.136Z,995.82
2019-01-13T03:16:58.114Z,995.89
2019-01-13T03:17:58.114Z,995.78
2019-01-13T03:18:58.107Z,995.79
2019-01-13T03:19:58.076Z,995.74
2019-01-13T03:20:58.067Z,995.69
2019-01-13T03:21:58.055Z,995.76
2019-01-13T03:22:58.046Z,995.74
2019-01-13T03:23:58.033Z,995.68
2019-01-13T03:24:58.055Z,995.72
2019-01-13T03:25:58.012Z,995.69
2019-01-13T03:26:58.000Z,995.73
2019-01-13T03:27:57.992Z,995.76
2019-01-13T03:28:57.979Z,995.80
2019-01-13T03:29:57.970Z,995.76
2019-01-13T03:31:10.684Z,995.70
2019-01-13T03:31:58.947Z,995.70
2019-01-13T03:32:57.950Z,995.73
2019-01-13T03:33:57.948Z,995.69
2019-01-13T03:34:57.917Z,995.68
2019-01-13T03:35:57.911Z,995.64
2019-01-13T03:36:57.896Z,995.59
2019-01-13T03:37:57.883Z,995.62
2019-01-13T03:38:57.875Z,995.58
2019-01-13T03:39:57.877Z,995.56
2019-01-13T03:40:57.867Z,995.52
2019-01-13T03:41:57.843Z,995.57
2019-01-13T03:42:57.838Z,995.63
2019-01-13T03:43:57.821Z,995.56
2019-01-13T03:44:57.825Z,995.59
2019-01-13T03:45:57.801Z,995.59
2019-01-13T03:46:57.788Z,995.58
2019-01-13T03:47:57.776Z,995.61
2019-01-13T03:48:57.806Z,995.62
2019-01-13T03:49:57.768Z,995.56
2019-01-13T03:50:57.747Z,995.54
2019-01-13T03:51:57.735Z,995.51
2019-01-13T03:52:57.727Z,995.37
2019-01-13T03:53:57.725Z,995.38
2019-01-13T03:54:57.716Z,995.34
2019-01-13T03:55:57.692Z,995.30
2019-01-13T03:56:57.679Z,995.29
2019-01-13T03:57:57.699Z,995.22
2019-01-13T03:58:57.666Z,995.22
2019-01-13T03:59:57.648Z,995.12
2019-01-13T04:00:57.638Z,995.12
2019-01-13T04:01:57.628Z,995.06
2019-01-13T04:02:57.619Z,995.11
2019-01-13T04:03:57.636Z,995.05
2019-01-13T04:04:57.595Z,995.06
2019-01-13T04:05:57.584Z,995.03
2019-01-13T04:06:57.575Z,995.08
2019-01-13T04:07:57.577Z,995.07
2019-01-13T04:08:57.551Z,995.06
2019-01-13T04:09:57.539Z,995.11
2019-01-13T04:10:57.530Z,995.03
2019-01-13T04:11:57.519Z,995.01
2019-01-13T04:12:57.521Z,994.99
2019-01-13T04:13:57.498Z,994.98
2019-01-13T04:14:57.486Z,994.85
2019-01-13T04:15:57.475Z,994.84
2019-01-13T04:16:57.477Z,994.81
2019-01-13T04:17:57.472Z,994.83
2019-01-13T04:18:57.456Z,994.87
2019-01-13T04:19:57.432Z,994.87
2019-01-13T04:20:57.418Z,994.87
2019-01-13T04:21:57.410Z,994.83
2019-01-13T04:22:57.396Z,994.77
2019-01-13T04:23:57.400Z,994.73
2019-01-13T04:24:57.374Z,994.68
2019-01-13T04:25:57.366Z,994.64
2019-01-13T04:26:57.357Z,994.63
2019-01-13T04:27:57.343Z,994.60
2019-01-13T04:28:57.371Z,994.60
2019-01-13T04:29:57.323Z,994.54
2019-01-13T04:30:57.310Z,994.50
2019-01-13T04:31:57.301Z,994.48
2019-01-13T04:32:57.292Z,994.46
2019-01-13T04:33:57.279Z,994.51
2019-01-13T04:34:57.281Z,994.45
2019-01-13T04:35:57.263Z,994.48
2019-01-13T04:36:57.248Z,994.50
2019-01-13T04:37:57.237Z,994.50
2019-01-13T04:38:57.225Z,994.51
2019-01-13T04:39:57.250Z,994.51
2019-01-13T04:40:57.204Z,994.54
2019-01-13T04:41:57.197Z,994.47
2019-01-13T04:42:57.183Z,994.44
2019-01-13T04:43:57.171Z,994.43
2019-01-13T04:44:57.159Z,994.44
2019-01-13T04:45:57.165Z,994.42
2019-01-13T04:46:57.138Z,994.44
2019-01-13T04:47:57.127Z,994.45
2019-01-13T04:48:57.134Z,994.42
2019-01-13T04:49:57.110Z,994.43
2019-01-13T04:50:57.133Z,994.41
2019-01-13T04:51:57.087Z,994.42
2019-01-13T04:52:57.076Z,994.41
2019-01-13T04:53:57.065Z,994.37
2019-01-13T04:54:57.055Z,994.33
2019-01-13T04:55:57.043Z,994.34
2019-01-13T04:56:57.051Z,994.33
2019-01-13T04:57:57.019Z,994.36
2019-01-13T04:58:57.010Z,994.33
2019-01-13T04:59:57.001Z,994.30
2019-01-13T05:00:56.990Z,994.30
2019-01-13T05:01:56.976Z,994.31
2019-01-13T05:02:57.013Z,994.25
2019-01-13T05:03:56.959Z,994.28
2019-01-13T05:04:56.949Z,994.27
2019-01-13T05:05:56.936Z,994.28
2019-01-13T05:06:56.928Z,994.22
2019-01-13T05:07:56.912Z,994.27
2019-01-13T05:08:56.918Z,994.18
2019-01-13T05:09:56.908Z,994.15
2019-01-13T05:10:56.878Z,994.11
2019-01-13T05:11:56.873Z,994.10
2019-01-13T05:12:56.861Z,994.13
2019-01-13T05:13:56.863Z,994.21
2019-01-13T05:14:56.840Z,994.18
2019-01-13T05:15:56.831Z,994.18
2019-01-13T05:16:56.816Z,994.13
2019-01-13T05:17:56.811Z,994.12
2019-01-13T05:18:56.819Z,994.15
2019-01-13T05:19:56.783Z,994.11
2019-01-13T05:20:56.773Z,994.11
2019-01-13T05:21:56.763Z,994.07
2019-01-13T05:22:56.818Z,994.02
2019-01-13T05:23:56.744Z,994.05
2019-01-13T05:24:56.748Z,993.96
2019-01-13T05:25:56.727Z,994.00
2019-01-13T05:26:56.709Z,993.96
2019-01-13T05:27:56.699Z,993.95
2019-01-13T05:28:56.704Z,993.91
2019-01-13T05:29:56.718Z,993.87
2019-01-13T05:30:56.667Z,993.81
2019-01-13T05:31:56.659Z,993.76
2019-01-13T05:32:56.654Z,993.76
2019-01-13T05:33:56.635Z,993.78
2019-01-13T05:34:56.627Z,993.74
2019-01-13T05:35:56.629Z,993.74
2019-01-13T05:36:56.603Z,993.75
2019-01-13T05:37:56.592Z,993.73
2019-01-13T05:38:56.584Z,993.67
2019-01-13T05:39:56.571Z,993.72
2019-01-13T05:40:56.578Z,993.64
2019-01-13T05:41:56.567Z,993.70
2019-01-13T05:42:56.538Z,993.75
2019-01-13T05:43:56.528Z,993.71
2019-01-13T05:44:56.516Z,993.70
2019-01-13T05:45:56.508Z,993.68
2019-01-13T05:46:56.525Z,993.66
2019-01-13T05:47:56.488Z,993.67
2019-01-13T05:48:56.476Z,993.61
2019-01-13T05:49:56.465Z,993.63
2019-01-13T05:50:56.449Z,993.63
2019-01-13T05:51:56.440Z,993.61
2019-01-13T05:52:56.448Z,993.56
2019-01-13T05:53:56.419Z,993.59
2019-01-13T05:54:56.408Z,993.53
2019-01-13T05:55:56.399Z,993.52
2019-01-13T05:56:56.385Z,993.52
2019-01-13T05:57:56.395Z,993.52
2019-01-13T05:58:56.365Z,993.49
2019-01-13T05:59:56.353Z,993.44
2019-01-13T06:00:56.343Z,993.40
2019-01-13T06:01:56.330Z,993.38
2019-01-13T06:02:56.319Z,993.39
2019-01-13T06:03:56.322Z,993.41
2019-01-13T06:04:56.296Z,993.46
2019-01-13T06:05:56.289Z,993.33
2019-01-13T06:06:56.275Z,993.32
2019-01-13T06:07:56.279Z,993.30
2019-01-13T06:08:56.267Z,993.26
2019-01-13T06:09:56.247Z,993.20
2019-01-13T06:10:56.248Z,993.19
2019-01-13T06:11:56.221Z,993.23
2019-01-13T06:12:56.226Z,993.10
2019-01-13T06:13:56.219Z,993.13
2019-01-13T06:14:56.202Z,993.09
2019-01-13T06:15:56.180Z,993.10
2019-01-13T06:16:56.168Z,993.07
2019-01-13T06:17:56.157Z,993.08
2019-01-13T06:18:56.144Z,993.09
2019-01-13T06:19:56.171Z,993.08
2019-01-13T06:20:56.122Z,993.03
2019-01-13T06:21:56.111Z,993.04
2019-01-13T06:22:56.103Z,993.03
2019-01-13T06:23:56.091Z,993.03
2019-01-13T06:24:56.079Z,993.03
2019-01-13T06:25:56.083Z,992.96
2019-01-13T06:26:56.059Z,992.97
2019-01-13T06:27:56.048Z,992.88
2019-01-13T06:28:56.035Z,992.87
2019-01-13T06:29:56.028Z,992.80
2019-01-13T06:30:56.029Z,992.79
2019-01-13T06:31:56.544Z,992.77
2019-01-13T06:32:55.995Z,992.77
2019-01-13T06:33:55.983Z,992.76
2019-01-13T06:34:55.971Z,992.78
2019-01-13T06:35:56.001Z,992.75
2019-01-13T06:36:55.951Z,992.78
2019-01-13T06:37:55.937Z,992.73
2019-01-13T06:38:55.926Z,992.70
2019-01-13T06:39:55.916Z,992.71
2019-01-13T06:40:55.906Z,992.68
2019-01-13T06:41:55.911Z,992.73
2019-01-13T06:42:55.886Z,992.70
2019-01-13T06:43:55.872Z,992.67
2019-01-13T06:44:55.865Z,992.64
2019-01-13T06:45:55.866Z,992.62
2019-01-13T06:46:55.839Z,992.61
2019-01-13T06:47:55.845Z,992.65
2019-01-13T06:48:55.818Z,992.66
2019-01-13T06:49:55.812Z,992.61
2019-01-13T06:50:55.796Z,992.58
2019-01-13T06:51:55.786Z,992.57
2019-01-13T06:52:55.800Z,992.56
2019-01-13T06:53:55.764Z,992.60
2019-01-13T06:54:55.755Z,992.56
2019-01-13T06:55:55.744Z,992.52
2019-01-13T06:56:55.734Z,992.49
2019-01-13T06:57:55.720Z,992.50
2019-01-13T06:58:55.726Z,992.46
2019-01-13T06:59:55.699Z,992.48
2019-01-13T07:00:55.691Z,992.48
2019-01-13T07:01:55.678Z,992.47
2019-01-13T07:02:55.682Z,992.42
2019-01-13T07:03:55.658Z,992.38
2019-01-13T07:04:55.645Z,992.36
2019-01-13T07:05:55.639Z,992.38
2019-01-13T07:06:55.626Z,992.33
2019-01-13T07:07:55.628Z,992.28
2019-01-13T07:08:55.603Z,992.29
2019-01-13T07:09:55.627Z,992.28
2019-01-13T07:10:55.585Z,992.27
2019-01-13T07:11:55.571Z,992.25
2019-01-13T07:12:55.560Z,992.26
2019-01-13T07:13:55.552Z,992.21
2019-01-13T07:14:55.541Z,992.32
2019-01-13T07:15:55.542Z,992.21
2019-01-13T07:16:55.519Z,992.09
2019-01-13T07:17:55.541Z,992.22
2019-01-13T07:18:55.511Z,992.26
2019-01-13T07:19:55.484Z,992.27
2019-01-13T07:20:55.477Z,992.14
2019-01-13T07:21:55.465Z,992.10
2019-01-13T07:22:55.454Z,992.05
2019-01-13T07:23:55.456Z,992.07
2019-01-13T07:24:55.432Z,992.08
2019-01-13T07:25:55.421Z,992.01
2019-01-13T07:26:55.410Z,991.95
2019-01-13T07:27:55.397Z,991.97
2019-01-13T07:28:55.400Z,991.93
2019-01-13T07:29:55.375Z,991.93
2019-01-13T07:30:55.368Z,991.94
2019-01-13T07:31:55.356Z,991.98
2019-01-13T07:32:55.359Z,991.91
2019-01-13T07:33:55.335Z,991.91
2019-01-13T07:34:55.325Z,991.85
2019-01-13T07:35:55.310Z,991.87
2019-01-13T07:36:55.299Z,991.81
2019-01-13T07:37:55.303Z,991.80
2019-01-13T07:38:55.281Z,991.79
2019-01-13T07:39:55.267Z,991.81
2019-01-13T07:40:55.272Z,991.70
2019-01-13T07:41:55.249Z,991.70
2019-01-13T07:42:55.252Z,991.65
2019-01-13T07:43:55.229Z,991.72
2019-01-13T07:44:55.213Z,991.78
2019-01-13T07:45:55.204Z,991.62
2019-01-13T07:46:55.206Z,991.58
2019-01-13T07:47:55.204Z,991.74
2019-01-13T07:48:55.171Z,991.54
2019-01-13T07:49:55.162Z,991.61
2019-01-13T07:50:55.149Z,991.57
2019-01-13T07:51:55.142Z,991.53
2019-01-13T07:52:55.137Z,991.45
2019-01-13T07:53:55.131Z,991.52
2019-01-13T07:54:55.107Z,991.51
2019-01-13T07:55:55.094Z,991.46
2019-01-13T07:56:55.085Z,991.43
2019-01-13T07:57:55.077Z,991.49
2019-01-13T07:58:55.073Z,991.38
2019-01-13T07:59:55.051Z,991.42
2019-01-13T08:00:55.053Z,991.42
2019-01-13T08:01:55.032Z,991.34
2019-01-13T08:02:55.020Z,991.35
2019-01-13T08:03:55.008Z,991.25
2019-01-13T08:04:55.001Z,991.25
2019-01-13T08:05:54.997Z,991.20
2019-01-13T08:06:54.978Z,991.33
2019-01-13T08:07:54.972Z,991.35
2019-01-13T08:08:54.954Z,991.24
2019-01-13T08:09:54.944Z,991.25
2019-01-13T08:10:54.946Z,991.23
2019-01-13T08:11:54.950Z,991.15
2019-01-13T08:12:54.917Z,991.14
2019-01-13T08:13:54.904Z,991.09
2019-01-13T08:14:54.889Z,991.02
2019-01-13T08:15:54.878Z,990.99
2019-01-13T08:16:54.872Z,990.93
2019-01-13T08:17:54.869Z,990.85
2019-01-13T08:18:54.848Z,990.88
2019-01-13T08:19:54.835Z,990.71
2019-01-13T08:20:54.826Z,990.87
2019-01-13T08:21:54.826Z,990.79
2019-01-13T08:22:54.801Z,990.80
2019-01-13T08:23:54.793Z,990.85
2019-01-13T08:24:54.783Z,990.92
2019-01-13T08:25:54.768Z,990.84
2019-01-13T08:26:54.771Z,990.84
2019-01-13T08:27:54.783Z,990.87
2019-01-13T08:28:54.739Z,990.80
2019-01-13T08:29:54.725Z,990.83
2019-01-13T08:30:54.714Z,990.79
2019-01-13T08:31:54.706Z,990.71
2019-01-13T08:32:54.697Z,990.76
2019-01-13T08:33:54.692Z,990.69
2019-01-13T08:34:54.674Z,990.68
2019-01-13T08:35:54.659Z,990.66
2019-01-13T08:36:54.648Z,990.61
2019-01-13T08:37:54.648Z,990.64
2019-01-13T08:38:54.658Z,990.67
2019-01-13T08:39:54.617Z,990.54
2019-01-13T08:40:54.607Z,990.54
2019-01-13T08:41:54.593Z,990.59
2019-01-13T08:42:54.584Z,990.27
2019-01-13T08:43:54.571Z,990.52
2019-01-13T08:44:54.596Z,990.62
2019-01-13T08:45:54.552Z,990.53
2019-01-13T08:46:54.541Z,990.50
2019-01-13T08:47:54.533Z,990.47
2019-01-13T08:48:54.522Z,990.47
2019-01-13T08:49:54.515Z,990.44
2019-01-13T08:50:54.515Z,990.44
2019-01-13T08:51:54.484Z,990.42
2019-01-13T08:52:54.475Z,990.37
2019-01-13T08:53:54.465Z,990.35
2019-01-13T08:54:54.451Z,990.31
2019-01-13T08:55:54.455Z,990.27
2019-01-13T08:56:54.433Z,990.32
2019-01-13T08:57:54.418Z,990.28
2019-01-13T08:58:54.409Z,990.28
2019-01-13T08:59:54.408Z,990.21
2019-01-13T09:00:54.395Z,990.31
2019-01-13T09:01:54.375Z,990.23
2019-01-13T09:02:54.366Z,990.18
2019-01-13T09:03:54.353Z,990.22
2019-01-13T09:04:54.341Z,990.17
2019-01-13T09:05:54.368Z,990.22
2019-01-13T09:06:54.322Z,990.21
2019-01-13T09:07:54.308Z,990.27
2019-01-13T09:08:54.298Z,990.14
2019-01-13T09:09:54.289Z,990.12
2019-01-13T09:10:54.320Z,990.13
2019-01-13T09:11:54.293Z,990.07
2019-01-13T09:12:56.825Z,990.08
2019-01-13T09:13:54.243Z,990.06
2019-01-13T09:14:54.231Z,990.03
2019-01-13T09:15:54.224Z,990.01
2019-01-13T09:16:54.210Z,989.99
2019-01-13T09:17:54.215Z,989.98
2019-01-13T09:18:54.196Z,989.87
2019-01-13T09:19:54.177Z,989.85
2019-01-13T09:20:54.167Z,989.83
2019-01-13T09:21:54.157Z,989.84
2019-01-13T09:22:54.156Z,989.84
2019-01-13T09:23:54.137Z,989.78
2019-01-13T09:24:54.126Z,989.77
2019-01-13T09:25:54.115Z,989.84
2019-01-13T09:26:54.104Z,989.69
2019-01-13T09:27:54.103Z,989.69
2019-01-13T09:28:54.083Z,989.70
2019-01-13T09:29:54.114Z,989.66
2019-01-13T09:30:54.059Z,989.71
2019-01-13T09:31:54.051Z,989.63
2019-01-13T09:32:54.049Z,989.67
2019-01-13T09:33:54.040Z,989.69
2019-01-13T09:34:54.014Z,989.71
2019-01-13T09:35:54.004Z,989.66
2019-01-13T09:36:53.997Z,989.62
2019-01-13T09:37:53.985Z,989.71
2019-01-13T09:38:53.992Z,989.63
2019-01-13T09:39:53.961Z,989.64
2019-01-13T09:40:53.952Z,989.70
2019-01-13T09:41:53.941Z,989.65
2019-01-13T09:42:53.927Z,989.66
2019-01-13T09:43:53.922Z,989.61
2019-01-13T09:44:53.919Z,989.69
2019-01-13T09:45:53.894Z,989.65
2019-01-13T09:46:53.886Z,989.61
2019-01-13T09:47:53.873Z,989.61
2019-01-13T09:48:53.906Z,989.60
2019-01-13T09:49:53.862Z,989.72
2019-01-13T09:50:53.841Z,989.58
2019-01-13T09:51:53.833Z,989.59
2019-01-13T09:52:53.851Z,989.61
2019-01-13T09:53:53.810Z,989.67
2019-01-13T09:54:53.814Z,989.65
2019-01-13T09:55:53.790Z,989.58
2019-01-13T09:56:53.790Z,989.58
2019-01-13T09:57:53.771Z,989.55
2019-01-13T09:58:53.755Z,989.57
2019-01-13T09:59:53.744Z,989.55
2019-01-13T10:00:53.761Z,989.49
2019-01-13T10:01:53.726Z,989.48
2019-01-13T10:02:53.712Z,989.47
2019-01-13T10:03:53.703Z,989.43
2019-01-13T10:04:53.692Z,989.41
2019-01-13T10:05:53.678Z,989.35
2019-01-13T10:06:53.681Z,989.38
2019-01-13T10:07:53.657Z,989.36
2019-01-13T10:08:53.650Z,989.39
2019-01-13T10:09:53.637Z,989.38
2019-01-13T10:10:53.627Z,989.34
2019-01-13T10:11:53.626Z,989.32
2019-01-13T10:12:53.602Z,989.32
2019-01-13T10:13:53.606Z,989.32
2019-01-13T10:14:53.581Z,989.31
2019-01-13T10:15:53.570Z,989.27
2019-01-13T10:16:53.576Z,989.26
2019-01-13T10:17:53.548Z,989.23
2019-01-13T10:18:53.541Z,989.16
2019-01-13T10:19:53.528Z,989.13
2019-01-13T10:20:53.518Z,989.15
2019-01-13T10:21:53.507Z,989.18
2019-01-13T10:22:53.514Z,989.09
2019-01-13T10:23:53.500Z,989.13
2019-01-13T10:24:53.476Z,989.10
2019-01-13T10:25:53.464Z,989.04
2019-01-13T10:26:53.451Z,989.22
2019-01-13T10:27:53.454Z,989.13
2019-01-13T10:28:53.429Z,989.17
2019-01-13T10:29:53.424Z,989.12
2019-01-13T10:30:53.408Z,989.08
2019-01-13T10:31:53.399Z,989.08
2019-01-13T10:32:55.067Z,989.05
2019-01-13T10:33:53.376Z,989.01
2019-01-13T10:34:53.366Z,989.02
2019-01-13T10:35:53.354Z,988.88
2019-01-13T10:36:53.343Z,988.85
2019-01-13T10:37:53.365Z,988.80
2019-01-13T10:38:53.324Z,988.85
2019-01-13T10:39:53.310Z,988.80
2019-01-13T10:40:53.302Z,988.89
2019-01-13T10:41:53.292Z,988.73
2019-01-13T10:42:53.279Z,988.88
2019-01-13T10:43:53.297Z,988.81
2019-01-13T10:44:53.260Z,988.74
2019-01-13T10:45:53.246Z,988.69
2019-01-13T10:46:53.238Z,988.71
2019-01-13T10:47:53.224Z,988.72
2019-01-13T10:48:53.217Z,988.68
2019-01-13T10:49:53.221Z,988.61
2019-01-13T10:50:53.196Z,988.71
2019-01-13T10:51:53.187Z,988.59
2019-01-13T10:52:53.171Z,988.61
2019-01-13T10:53:53.176Z,988.61
2019-01-13T10:54:53.151Z,988.57
2019-01-13T10:55:53.139Z,988.59
2019-01-13T10:56:53.127Z,988.57
2019-01-13T10:57:53.117Z,988.59
2019-01-13T10:58:53.123Z,988.56
2019-01-13T10:59:53.126Z,988.55
2019-01-13T11:00:53.087Z,988.63
2019-01-13T11:01:53.074Z,988.58
2019-01-13T11:02:53.063Z,988.51
2019-01-13T11:03:53.051Z,988.58
2019-01-13T11:04:53.042Z,988.59
2019-01-13T11:05:53.049Z,988.47
2019-01-13T11:06:53.021Z,988.44
2019-01-13T11:07:53.012Z,988.38
2019-01-13T11:08:52.998Z,988.37
2019-01-13T11:09:53.041Z,988.34
2019-01-13T11:10:52.978Z,988.33
2019-01-13T11:11:52.968Z,988.34
2019-01-13T11:12:52.958Z,988.39
2019-01-13T11:13:52.946Z,988.39
2019-01-13T11:14:52.955Z,988.38
2019-01-13T11:15:52.923Z,988.22
2019-01-13T11:16:52.913Z,988.19
2019-01-13T11:17:52.901Z,988.31
2019-01-13T11:18:52.891Z,988.33
2019-01-13T11:19:52.883Z,988.22
2019-01-13T11:20:52.878Z,988.27
2019-01-13T11:21:52.858Z,988.25
2019-01-13T11:22:52.851Z,988.18
2019-01-13T11:23:52.839Z,988.22
2019-01-13T11:24:52.825Z,988.17
2019-01-13T11:25:52.828Z,988.18
2019-01-13T11:26:52.825Z,988.13
2019-01-13T11:27:52.795Z,988.12
2019-01-13T11:28:52.783Z,988.12
2019-01-13T11:29:52.775Z,988.04
2019-01-13T11:30:52.762Z,987.99
2019-01-13T11:31:52.755Z,988.10
2019-01-13T11:32:52.758Z,987.94
2019-01-13T11:33:52.733Z,988.00
2019-01-13T11:34:52.721Z,987.95
2019-01-13T11:35:52.710Z,987.91
2019-01-13T11:36:52.731Z,987.92
2019-01-13T11:37:52.704Z,987.94
2019-01-13T11:38:52.689Z,987.87
2019-01-13T11:39:52.666Z,987.80
2019-01-13T11:40:52.655Z,987.81
2019-01-13T11:41:52.645Z,987.76
2019-01-13T11:42:52.644Z,987.74
2019-01-13T11:43:52.620Z,987.74
2019-01-13T11:44:52.612Z,987.69
2019-01-13T11:45:52.603Z,987.72
2019-01-13T11:46:52.590Z,987.73
2019-01-13T11:47:52.589Z,987.77
2019-01-13T11:48:52.568Z,987.67
2019-01-13T11:49:52.557Z,987.72
2019-01-13T11:50:52.547Z,987.64
2019-01-13T11:51:52.536Z,987.59
2019-01-13T11:52:52.554Z,987.64
2019-01-13T11:53:52.514Z,987.62
2019-01-13T11:54:52.500Z,987.53
2019-01-13T11:55:52.490Z,987.42
2019-01-13T11:56:52.479Z,987.41
2019-01-13T11:57:52.473Z,987.41
2019-01-13T11:58:52.472Z,987.45
2019-01-13T11:59:52.451Z,987.50
2019-01-13T12:00:52.438Z,987.47
2019-01-13T12:01:52.426Z,987.39
2019-01-13T12:02:52.417Z,987.42
2019-01-13T12:03:52.406Z,987.41
2019-01-13T12:04:52.405Z,987.48
2019-01-13T12:05:52.383Z,987.44
2019-01-13T12:06:52.374Z,987.49
2019-01-13T12:07:52.363Z,987.43
2019-01-13T12:08:52.388Z,987.47
2019-01-13T12:09:52.342Z,987.43
2019-01-13T12:10:52.329Z,987.37
2019-01-13T12:11:52.318Z,987.35
2019-01-13T12:12:52.309Z,987.39
2019-01-13T12:13:52.296Z,987.31
2019-01-13T12:14:52.298Z,987.19
2019-01-13T12:15:52.278Z,987.16
2019-01-13T12:16:52.265Z,987.03
2019-01-13T12:17:52.253Z,986.93
2019-01-13T12:18:52.257Z,986.92
2019-01-13T12:19:52.258Z,986.98
2019-01-13T12:20:52.227Z,986.94
2019-01-13T12:21:52.215Z,986.97
2019-01-13T12:22:52.199Z,987.05
2019-01-13T12:23:52.189Z,987.07
2019-01-13T12:24:52.193Z,987.12
2019-01-13T12:25:52.786Z,987.04
2019-01-13T12:26:52.186Z,987.05
2019-01-13T12:27:52.150Z,987.02